Time;durP1;ratioP1;P1;durP2;ratioP2;P2;SDS_P1;SDS_P2;PMS_P1;PMS_P2;Temp;Humidity;BMP_temperature;BMP_pressure;BME280_temperature;BME280_humidity;BME280_pressure;Samples;Min_cycle;Max_cycle;Signal;HPM_P1;HPM_P2
2021/09/04 00:02:16;;;;;;;50.90;47.00;;;;;;;15.42;100.00;102006.22;1971926;73;33115;-74
2021/09/04 00:07:40;;;;;;;51.83;47.50;;;;;;;15.36;100.00;101994.77;1972197;73;33444;-74
2021/09/04 00:13:06;;;;;;;51.10;46.60;;;;;;;15.61;100.00;101990.17;1972123;73;32954;-72
2021/09/04 00:18:33;;;;;;;50.27;46.57;;;;;;;15.57;100.00;101991.33;1971889;73;32930;-71
2021/09/04 00:23:55;;;;;;;49.27;45.30;;;;;;;15.76;100.00;101985.28;1972137;73;33474;-74
2021/09/04 00:29:26;;;;;;;47.17;43.47;;;;;;;15.99;100.00;101975.85;1971896;73;32988;-74
2021/09/04 00:34:51;;;;;;;50.17;46.37;;;;;;;15.86;100.00;101974.56;1971974;73;31015;-72
2021/09/04 00:40:16;;;;;;;47.60;44.00;;;;;;;16.01;100.00;101973.58;1971984;73;30963;-72
2021/09/04 00:45:41;;;;;;;49.20;45.37;;;;;;;16.00;100.00;101966.31;1971930;73;32911;-73
2021/09/04 00:51:06;;;;;;;48.13;44.53;;;;;;;16.21;100.00;101967.80;1972069;73;32928;-72
2021/09/04 00:56:32;;;;;;;47.63;44.00;;;;;;;16.17;100.00;101967.52;1972145;73;32897;-75
2021/09/04 01:01:58;;;;;;;46.27;42.67;;;;;;;16.16;100.00;101965.87;1972122;73;33476;-72
2021/09/04 01:07:23;;;;;;;45.87;42.47;;;;;;;16.27;100.00;101959.02;1971912;72;32907;-73
2021/09/04 01:12:48;;;;;;;46.43;42.70;;;;;;;16.24;100.00;101954.02;1971923;73;32994;-75
2021/09/04 01:18:14;;;;;;;44.80;41.47;;;;;;;16.20;100.00;101960.50;1941930;72;32899;-72
2021/09/04 01:23:39;;;;;;;47.13;43.43;;;;;;;15.90;100.00;101961.64;1971907;73;32923;-73
2021/09/04 01:29:05;;;;;;;46.83;43.43;;;;;;;15.72;100.00;101951.98;1972141;73;33432;-74
2021/09/04 01:34:30;;;;;;;46.83;43.43;;;;;;;15.67;100.00;101948.37;1972119;73;33032;-74
2021/09/04 01:39:54;;;;;;;46.03;42.63;;;;;;;15.26;100.00;101952.02;1972154;73;33434;-72
2021/09/04 01:45:19;;;;;;;47.33;43.63;;;;;;;15.04;100.00;101956.07;1972138;73;33503;-74
2021/09/04 01:50:44;;;;;;;47.63;43.87;;;;;;;14.76;100.00;101958.73;1971951;73;32902;-74
2021/09/04 01:56:10;;;;;;;49.43;45.43;;;;;;;14.62;100.00;101959.06;1971902;72;32952;-72
2021/09/04 02:01:34;;;;;;;47.47;44.17;;;;;;;14.41;100.00;101960.54;1972163;73;33683;-72
2021/09/04 02:06:59;;;;;;;48.33;44.63;;;;;;;14.26;100.00;101958.28;1971899;73;32907;-74
2021/09/04 02:12:23;;;;;;;47.13;43.50;;;;;;;14.14;100.00;101953.02;1971921;73;32960;-71
2021/09/04 02:17:48;;;;;;;49.77;45.97;;;;;;;13.98;100.00;101951.37;1972155;73;32968;-71
2021/09/04 02:23:12;;;;;;;48.43;44.47;;;;;;;14.09;100.00;101941.84;1972191;73;33471;-72
2021/09/04 02:28:37;;;;;;;50.30;46.50;;;;;;;13.75;100.00;101937.97;1972176;73;32898;-74
2021/09/04 02:34:01;;;;;;;50.30;46.60;;;;;;;13.75;100.00;101933.22;1971975;73;32898;-74
2021/09/04 02:39:26;;;;;;;51.40;47.57;;;;;;;13.72;100.00;101937.98;1971912;73;33022;-72
2021/09/04 02:44:50;;;;;;;49.17;45.20;;;;;;;13.69;100.00;101932.97;1971982;73;32900;-74
2021/09/04 02:50:15;;;;;;;49.00;45.37;;;;;;;13.56;100.00;101921.77;1971920;73;32992;-72
2021/09/04 02:55:39;;;;;;;49.57;45.47;;;;;;;13.46;100.00;101924.58;1971937;73;32888;-72
2021/09/04 03:01:10;;;;;;;50.63;46.77;;;;;;;13.46;100.00;101923.73;1971944;73;33001;-71
2021/09/04 03:06:35;;;;;;;50.93;46.83;;;;;;;13.45;100.00;101925.69;1971943;73;32892;-72
2021/09/04 03:12:00;;;;;;;51.23;47.50;;;;;;;13.41;100.00;101918.98;1972151;73;33002;-72
2021/09/04 03:17:25;;;;;;;51.00;47.00;;;;;;;13.45;100.00;101915.92;1971854;73;32902;-72
2021/09/04 03:22:49;;;;;;;50.43;46.27;;;;;;;13.13;100.00;101915.34;1972100;73;32926;-74
2021/09/04 03:28:14;;;;;;;50.27;45.93;;;;;;;13.18;100.00;101910.58;1971986;73;33403;-72
2021/09/04 03:33:38;;;;;;;49.57;45.63;;;;;;;13.03;100.00;101904.12;1971972;73;32982;-73
2021/09/04 03:39:03;;;;;;;48.93;45.03;;;;;;;13.10;100.00;101897.70;1971893;73;32920;-71
2021/09/04 03:44:27;;;;;;;48.03;44.17;;;;;;;13.16;100.00;101894.70;1971916;73;32943;-71
2021/09/04 03:49:52;;;;;;;49.33;45.47;;;;;;;13.01;100.00;101888.20;1971892;73;33001;-72
2021/09/04 03:55:17;;;;;;;50.60;46.43;;;;;;;13.32;100.00;101878.79;1972113;73;32983;-74
2021/09/04 04:00:42;;;;;;;50.30;46.40;;;;;;;13.21;100.00;101874.33;1953742;73;39754;-72
2021/09/04 04:06:06;;;;;;;49.73;45.80;;;;;;;13.62;100.00;101878.78;1971855;73;33456;-71
2021/09/04 04:11:31;;;;;;;51.20;47.10;;;;;;;13.56;100.00;101883.27;1972180;73;32961;-71
2021/09/04 04:16:59;;;;;;;50.87;46.87;;;;;;;13.62;100.00;101879.34;1971929;73;32904;-74
2021/09/04 04:22:23;;;;;;;49.77;45.70;;;;;;;13.81;100.00;101876.81;1962988;71;33055;-72
2021/09/04 04:27:47;;;;;;;51.73;47.63;;;;;;;14.04;100.00;101874.79;1972148;73;33389;-74
2021/09/04 04:33:32;;;;;;;50.70;46.83;;;;;;;14.29;100.00;101866.31;2016274;71;33428;-74
2021/09/04 04:38:56;;;;;;;49.20;45.60;;;;;;;14.41;100.00;101871.08;1971905;73;32975;-74
2021/09/04 04:44:20;;;;;;;51.93;47.73;;;;;;;14.54;100.00;101864.88;1971893;73;33013;-74
2021/09/04 04:49:45;;;;;;;52.20;48.00;;;;;;;14.35;100.00;101869.94;1972014;72;32933;-74
2021/09/04 04:55:11;;;;;;;53.90;49.77;;;;;;;14.66;100.00;101865.92;1971952;73;32894;-72
2021/09/04 05:00:36;;;;;;;51.03;47.00;;;;;;;14.73;100.00;101868.39;1971917;73;33071;-73
2021/09/04 05:06:03;;;;;;;52.43;48.37;;;;;;;14.62;100.00;101877.41;1971952;73;32903;-74
2021/09/04 05:11:30;;;;;;;51.07;47.13;;;;;;;14.63;100.00;101875.45;1971971;73;32881;-71
2021/09/04 05:16:54;;;;;;;52.07;48.17;;;;;;;14.75;100.00;101878.19;1972173;73;33017;-73
2021/09/04 05:22:18;;;;;;;55.77;51.50;;;;;;;14.67;100.00;101877.39;1952043;73;32943;-71
2021/09/04 05:27:46;;;;;;;57.73;53.50;;;;;;;14.79;100.00;101886.83;1971947;73;33185;-74
2021/09/04 05:33:11;;;;;;;58.27;54.17;;;;;;;15.00;100.00;101879.98;1971937;73;32930;-72
2021/09/04 05:38:43;;;;;;;57.10;53.20;;;;;;;15.07;100.00;101881.88;1971885;73;33104;-72
2021/09/04 05:44:07;;;;;;;59.17;54.97;;;;;;;15.12;100.00;101878.22;1971956;73;32943;-74
2021/09/04 05:49:32;;;;;;;59.83;55.40;;;;;;;15.33;100.00;101876.94;1971900;73;32942;-73
2021/09/04 05:54:56;;;;;;;60.90;56.37;;;;;;;15.52;100.00;101885.50;1972124;72;33425;-76
2021/09/04 06:00:21;;;;;;;59.80;55.70;;;;;;;15.52;100.00;101894.73;1971979;73;32955;-72
2021/09/04 06:05:46;;;;;;;63.03;58.43;;;;;;;15.69;100.00;101889.55;1972131;73;33573;-74
2021/09/04 06:11:11;;;;;;;63.27;58.43;;;;;;;15.74;100.00;101892.87;1971924;73;32971;-72
2021/09/04 06:16:35;;;;;;;61.63;57.03;;;;;;;15.90;100.00;101895.22;1972177;72;33388;-74
2021/09/04 06:22:00;;;;;;;63.47;58.60;;;;;;;15.87;100.00;101901.98;1971814;73;32896;-74
2021/09/04 06:27:24;;;;;;;60.73;55.53;;;;;;;15.94;100.00;101899.10;1972128;73;33483;-69
2021/09/04 06:32:49;;;;;;;63.50;58.47;;;;;;;15.94;100.00;101903.30;1972183;73;32871;-75
2021/09/04 06:38:14;;;;;;;63.63;58.50;;;;;;;16.04;100.00;101888.36;1972155;73;31482;-72
2021/09/04 06:43:40;;;;;;;58.53;53.67;;;;;;;16.15;100.00;101884.30;1972171;73;33394;-72
2021/09/04 06:49:04;;;;;;;60.83;55.87;;;;;;;16.23;100.00;101889.81;1972142;73;33407;-71
2021/09/04 06:54:29;;;;;;;58.47;53.70;;;;;;;16.31;100.00;101888.59;1971894;73;32894;-71
2021/09/04 06:59:53;;;;;;;59.70;54.47;;;;;;;16.40;100.00;101887.36;1972134;73;33399;-70
2021/09/04 07:05:18;;;;;;;58.60;53.37;;;;;;;16.39;100.00;101893.53;1972097;73;32857;-70
2021/09/04 07:10:45;;;;;;;63.40;58.20;;;;;;;16.44;100.00;101894.05;1972169;73;31411;-76
2021/09/04 07:16:10;;;;;;;61.30;56.67;;;;;;;16.57;100.00;101898.09;1972001;73;32902;-76
2021/09/04 07:21:34;;;;;;;60.90;55.57;;;;;;;16.64;100.00;101898.05;1972110;73;33019;-71
2021/09/04 07:26:59;;;;;;;60.00;54.33;;;;;;;16.66;100.00;101891.55;1972250;73;32969;-78
2021/09/04 07:32:24;;;;;;;61.90;56.70;;;;;;;16.63;100.00;101896.94;1972142;73;32931;-77
2021/09/04 07:37:48;;;;;;;59.57;54.70;;;;;;;16.78;100.00;101895.31;1972155;73;30930;-71
2021/09/04 07:43:14;;;;;;;59.93;54.67;;;;;;;16.98;100.00;101893.65;1971990;73;30952;-72
2021/09/04 07:48:38;;;;;;;58.67;53.87;;;;;;;16.98;100.00;101896.45;1971949;73;31019;-71
2021/09/04 07:54:04;;;;;;;58.93;53.93;;;;;;;17.12;100.00;101886.67;1972156;72;33399;-72
2021/09/04 07:59:30;;;;;;;58.80;53.67;;;;;;;17.06;100.00;101885.11;1971931;73;30944;-70
2021/09/04 08:04:55;;;;;;;59.70;54.83;;;;;;;17.28;100.00;101886.13;1972153;73;31424;-74
2021/09/04 08:10:20;;;;;;;55.37;50.70;;;;;;;17.46;100.00;101880.23;1972175;73;33397;-74
2021/09/04 08:15:46;;;;;;;56.73;52.10;;;;;;;17.66;100.00;101884.15;1972203;73;33519;-74
2021/09/04 08:21:10;;;;;;;54.20;49.53;;;;;;;17.77;100.00;101876.35;1965754;73;31076;-70
2021/09/04 08:26:35;;;;;;;55.70;51.17;;;;;;;18.04;100.00;101878.39;1971960;73;30953;-71
2021/09/04 08:32:00;;;;;;;53.87;49.50;;;;;;;18.28;100.00;101876.78;1972169;73;31431;-72
2021/09/04 08:37:24;;;;;;;52.83;48.23;;;;;;;18.64;100.00;101881.97;1972035;73;31099;-75
2021/09/04 08:42:51;;;;;;;52.70;48.37;;;;;;;18.58;100.00;101878.42;1971962;73;30951;-74
2021/09/04 08:48:16;;;;;;;53.50;49.27;;;;;;;18.87;100.00;101891.33;1972173;73;31034;-70
2021/09/04 08:53:42;;;;;;;50.67;46.33;;;;;;;18.99;100.00;101887.38;1972135;73;30954;-72
2021/09/04 08:59:07;;;;;;;52.67;48.43;;;;;;;19.12;100.00;101878.63;1971965;73;30952;-74
2021/09/04 09:04:35;;;;;;;52.43;48.20;;;;;;;19.10;100.00;101875.55;1971989;73;31059;-73
2021/09/04 09:10:00;;;;;;;52.80;48.77;;;;;;;19.17;100.00;101879.93;1972151;73;33389;-72
2021/09/04 09:15:27;;;;;;;48.93;44.93;;;;;;;19.34;100.00;101875.24;1971957;72;30947;-72
2021/09/04 09:21:03;;;;;;;49.97;46.27;;;;;;;19.50;100.00;101882.22;1972054;73;31068;-75
2021/09/04 09:26:31;;;;;;;51.47;47.43;;;;;;;19.44;100.00;101874.20;1972169;73;31473;-73
2021/09/04 09:32:13;;;;;;;51.20;47.00;;;;;;;19.54;100.00;101887.47;1971953;73;30958;-72
2021/09/04 09:37:52;;;;;;;51.70;47.57;;;;;;;19.55;100.00;101879.85;1971932;72;30967;-69
2021/09/04 09:43:38;;;;;;;50.80;46.80;;;;;;;19.83;100.00;101872.05;2016240;71;30877;-73
2021/09/04 09:49:09;;;;;;;51.93;47.90;;;;;;;19.81;100.00;101873.78;1971926;73;31091;-69
2021/09/04 09:54:35;;;;;;;51.20;47.23;;;;;;;19.88;100.00;101872.77;1972160;72;31425;-72
2021/09/04 10:00:02;;;;;;;50.53;46.53;;;;;;;19.93;100.00;101874.61;1971961;73;31007;-70
2021/09/04 10:05:29;;;;;;;51.60;47.37;;;;;;;19.96;100.00;101871.14;1972156;73;31460;-75
2021/09/04 10:10:55;;;;;;;50.60;46.47;;;;;;;19.95;100.00;101866.06;1972158;73;31449;-72
2021/09/04 10:16:20;;;;;;;49.53;45.63;;;;;;;20.12;100.00;101868.14;1972135;73;31071;-72
2021/09/04 10:21:45;;;;;;;49.97;46.10;;;;;;;20.05;100.00;101873.42;1972110;73;31605;-69
2021/09/04 10:27:11;;;;;;;49.47;45.83;;;;;;;19.81;100.00;101873.78;1972266;73;31020;-73
2021/09/04 10:32:37;;;;;;;51.30;47.03;;;;;;;19.75;100.00;101875.66;1972101;73;31472;-69
2021/09/04 10:38:10;;;;;;;51.80;47.87;;;;;;;19.90;100.00;101867.61;1971918;73;30966;-71
2021/09/04 10:43:35;;;;;;;50.70;46.90;;;;;;;19.99;100.00;101864.84;1971947;73;30949;-74
2021/09/04 10:49:04;;;;;;;52.87;48.60;;;;;;;19.90;100.00;101855.49;1972153;73;33511;-69
2021/09/04 10:55:01;;;;;;;49.23;45.43;;;;;;;20.05;100.00;101862.72;1971930;73;31006;-68
2021/09/04 11:00:44;;;;;;;53.00;49.30;;;;;;;20.14;100.00;101850.90;1972103;73;30963;-70
2021/09/04 11:06:11;;;;;;;48.20;44.63;;;;;;;19.97;100.00;101859.55;1971915;73;31040;-72
2021/09/04 11:11:41;;;;;;;47.57;43.77;;;;;;;20.18;100.00;101842.87;1971962;73;31064;-69
2021/09/04 11:17:21;;;;;;;48.03;44.43;;;;;;;20.33;100.00;101843.86;1972157;73;30968;-71
2021/09/04 11:22:48;;;;;;;46.03;42.57;;;;;;;20.44;100.00;101829.72;1946932;73;31069;-71
2021/09/04 11:28:12;;;;;;;48.17;44.73;;;;;;;20.60;100.00;101834.88;1971905;73;31055;-72
2021/09/04 11:33:52;;;;;;;48.75;45.17;;;;;;;20.65;100.00;101849.69;1971965;73;31103;-71
2021/09/04 11:39:37;;;;;;;48.50;44.93;;;;;;;20.61;100.00;101853.48;1971930;73;31023;-69
2021/09/04 11:45:04;;;;;;;49.67;45.97;;;;;;;20.31;100.00;101858.89;1972209;73;31471;-69
2021/09/04 11:50:32;;;;;;;50.90;46.83;;;;;;;20.13;100.00;101858.52;1971966;73;30976;-66
2021/09/04 11:55:58;;;;;;;51.57;47.27;;;;;;;20.21;100.00;101859.71;1972205;73;30947;-70
2021/09/04 12:01:23;;;;;;;53.03;49.13;;;;;;;20.23;100.00;101863.89;1972140;73;31594;-71
2021/09/04 12:06:50;;;;;;;51.27;47.57;;;;;;;20.33;100.00;101858.55;1972171;73;33512;-71
2021/09/04 12:12:14;;;;;;;54.63;50.17;;;;;;;20.32;100.00;101856.91;1972109;73;33494;-70
2021/09/04 12:17:51;;;;;;;52.50;47.83;;;;;;;20.14;100.00;101861.61;1972030;73;31448;-71
2021/09/04 12:23:28;;;;;;;51.47;47.50;;;;;;;20.06;100.00;101860.99;1972193;73;30940;-69
2021/09/04 12:29:10;;;;;;;55.53;51.10;;;;;;;20.12;100.00;101860.25;1972210;73;31460;-70
2021/09/04 12:34:40;;;;;;;52.30;48.17;;;;;;;20.32;100.00;101849.84;1972041;73;31019;-76
2021/09/04 12:40:21;;;;;;;53.37;49.17;;;;;;;20.58;100.00;101851.33;1972143;73;31426;-73
2021/09/04 12:46:01;;;;;;;51.80;47.77;;;;;;;20.69;100.00;101850.69;1972217;73;31495;-68
2021/09/04 12:51:36;;;;;;;52.60;48.37;;;;;;;20.51;100.00;101844.74;1972173;73;31455;-71
2021/09/04 12:57:14;;;;;;;50.50;46.70;;;;;;;20.49;100.00;101838.61;1972189;73;30953;-72
2021/09/04 13:02:45;;;;;;;50.47;46.27;;;;;;;20.54;100.00;101837.02;1971941;73;31025;-69
2021/09/04 13:08:11;;;;;;;51.60;47.43;;;;;;;20.66;100.00;101839.22;1971886;72;31025;-68
2021/09/04 13:13:35;;;;;;;52.37;48.23;;;;;;;20.92;100.00;101841.50;1971871;73;31010;-69
2021/09/04 13:19:00;;;;;;;54.10;49.70;;;;;;;20.52;100.00;101830.05;1972013;73;31462;-74
2021/09/04 13:24:25;;;;;;;53.20;49.00;;;;;;;20.25;100.00;101836.73;1971922;73;31042;-75
2021/09/04 13:29:50;;;;;;;53.63;49.37;;;;;;;20.23;100.00;101831.44;1972149;73;30964;-69
2021/09/04 13:35:15;;;;;;;56.43;51.80;;;;;;;20.50;100.00;101823.89;1972058;73;31060;-73
2021/09/04 13:40:39;;;;;;;55.13;50.63;;;;;;;20.37;100.00;101815.80;1971921;73;31073;-75
2021/09/04 13:46:04;;;;;;;57.33;52.27;;;;;;;20.24;100.00;101810.51;1972161;73;31535;-68
2021/09/04 13:51:28;;;;;;;55.03;50.70;;;;;;;20.47;100.00;101816.09;1972075;73;31120;-73
2021/09/04 13:56:55;;;;;;;55.60;51.03;;;;;;;20.73;100.00;101809.33;1972080;73;30956;-68
2021/09/04 14:02:20;;;;;;;54.30;49.73;;;;;;;20.49;100.00;101814.62;1971944;73;31025;-69
2021/09/04 14:07:44;;;;;;;56.10;51.50;;;;;;;20.39;100.00;101819.15;1972157;73;31007;-69
2021/09/04 14:13:09;;;;;;;55.63;50.93;;;;;;;20.37;100.00;101815.23;1972114;73;31530;-71
2021/09/04 14:18:34;;;;;;;56.13;51.53;;;;;;;20.44;100.00;101814.77;1972175;73;30949;-68
2021/09/04 14:23:58;;;;;;;56.30;51.47;;;;;;;20.50;100.00;101805.54;1972162;73;33467;-73
2021/09/04 14:29:23;;;;;;;57.03;51.93;;;;;;;20.57;100.00;101800.26;1971912;73;30958;-68
2021/09/04 14:34:48;;;;;;;56.20;51.40;;;;;;;20.52;100.00;101791.94;1972136;73;33464;-69
2021/09/04 14:40:13;;;;;;;54.93;50.30;;;;;;;20.52;100.00;101796.17;1971926;73;30944;-68
2021/09/04 14:45:38;;;;;;;55.97;51.27;;;;;;;20.42;100.00;101788.84;1972187;72;31400;-75
2021/09/04 14:51:03;;;;;;;58.87;54.03;;;;;;;20.30;100.00;101785.26;1972141;73;33413;-73
2021/09/04 14:56:27;;;;;;;57.93;52.87;;;;;;;20.33;100.00;101779.53;1971940;73;31028;-74
2021/09/04 15:01:52;;;;;;;56.67;51.93;;;;;;;20.42;100.00;101784.61;1972179;73;30941;-73
2021/09/04 15:07:16;;;;;;;56.47;51.50;;;;;;;20.47;100.00;101789.27;1972204;73;31490;-73
2021/09/04 15:12:41;;;;;;;59.90;55.03;;;;;;;20.36;100.00;101792.42;1972242;73;31429;-73
2021/09/04 15:18:07;;;;;;;55.95;51.65;;;;;;;20.26;100.00;101783.39;1971940;73;30951;-73
2021/09/04 15:23:38;;;;;;;56.10;51.63;;;;;;;20.17;100.00;101785.34;1972123;73;31524;-71
2021/09/04 15:28:58;;;;;;;58.10;53.27;;;;;;;20.32;100.00;101781.51;1972169;73;30940;-75
2021/09/04 15:34:22;;;;;;;56.77;52.03;;;;;;;20.37;100.00;101787.58;1971945;73;30938;-74
2021/09/04 15:39:47;;;;;;;56.67;51.97;;;;;;;20.33;100.00;101785.17;1972069;73;30951;-68
2021/09/04 15:45:13;;;;;;;56.23;51.80;;;;;;;20.37;100.00;101785.59;1971952;73;30949;-69
2021/09/04 15:50:40;;;;;;;57.87;53.27;;;;;;;20.28;100.00;101782.49;1971905;73;30944;-72
2021/09/04 15:56:06;;;;;;;57.15;52.48;;;;;;;20.17;100.00;101785.34;1972021;73;31095;-69
2021/09/04 16:01:31;;;;;;;58.50;53.87;;;;;;;20.16;100.00;101786.50;1972073;73;31074;-68
2021/09/04 16:06:55;;;;;;;57.23;52.70;;;;;;;20.18;100.00;101789.84;1972086;73;31601;-69
2021/09/04 16:12:27;;;;;;;82.73;69.20;;;;;;;20.09;100.00;101779.94;1972141;73;30958;-68
2021/09/04 16:17:52;;;;;;;58.80;54.07;;;;;;;19.99;100.00;101778.23;1971969;73;30937;-73
2021/09/04 16:23:17;;;;;;;172.20;94.67;;;;;;;20.12;100.00;101770.81;1937420;74;31018;-75
2021/09/04 16:28:41;;;;;;;58.80;53.83;;;;;;;19.94;100.00;101780.36;1971930;73;31092;-75
2021/09/04 16:34:06;;;;;;;56.93;52.47;;;;;;;20.05;100.00;101766.81;1971909;73;31031;-69
2021/09/04 16:39:31;;;;;;;57.30;52.67;;;;;;;20.07;100.00;101761.69;1972080;72;30930;-72
2021/09/04 16:44:55;;;;;;;53.93;49.73;;;;;;;20.17;100.00;101774.06;1971943;73;31006;-73
2021/09/04 16:50:21;;;;;;;267.13;133.87;;;;;;;20.17;100.00;101774.06;1972222;73;31452;-72
2021/09/04 16:55:45;;;;;;;56.30;51.60;;;;;;;20.05;100.00;101768.22;1972158;73;31541;-70
2021/09/04 17:01:10;;;;;;;97.67;76.97;;;;;;;20.10;100.00;101773.72;1971876;73;30965;-71
2021/09/04 17:06:35;;;;;;;59.70;55.00;;;;;;;19.79;100.00;101763.32;1971894;72;31000;-69
2021/09/04 17:11:59;;;;;;;56.00;51.57;;;;;;;19.84;100.00;101757.55;1971903;73;30937;-71
2021/09/04 17:17:24;;;;;;;57.63;52.87;;;;;;;19.96;100.00;101763.39;1972181;73;31490;-70
2021/09/04 17:22:49;;;;;;;56.17;51.67;;;;;;;19.88;100.00;101767.59;1971939;72;30986;-69
2021/09/04 17:28:14;;;;;;;56.47;52.27;;;;;;;19.90;100.00;101763.84;1971958;73;31074;-70
2021/09/04 17:33:39;;;;;;;56.90;52.30;;;;;;;19.99;100.00;101757.08;1971976;72;30951;-69
2021/09/04 17:39:03;;;;;;;56.20;51.90;;;;;;;19.81;100.00;101760.98;1972187;73;31023;-71
2021/09/04 17:44:28;;;;;;;53.40;49.10;;;;;;;19.82;100.00;101770.28;1972227;73;31489;-71
2021/09/04 17:49:53;;;;;;;55.30;51.00;;;;;;;19.82;100.00;101766.05;1972112;73;31491;-68
2021/09/04 17:55:18;;;;;;;55.50;51.10;;;;;;;19.89;100.00;101773.48;1971965;73;31028;-70
2021/09/04 18:00:45;;;;;;;57.03;52.57;;;;;;;20.16;100.00;101769.00;1971932;73;30948;-71
2021/09/04 18:06:09;;;;;;;54.70;50.60;;;;;;;20.24;100.00;101775.81;1972193;73;30965;-67
2021/09/04 18:11:34;;;;;;;54.47;50.17;;;;;;;20.23;100.00;101771.36;1971916;73;30968;-70
2021/09/04 18:16:58;;;;;;;55.57;51.27;;;;;;;19.80;100.00;101790.37;1971963;73;30987;-69
2021/09/04 18:22:23;;;;;;;55.10;50.93;;;;;;;19.66;100.00;101798.66;1972163;73;31573;-69
2021/09/04 18:27:48;;;;;;;54.87;50.73;;;;;;;19.50;100.00;101792.61;1972245;73;31420;-69
2021/09/04 18:33:15;;;;;;;52.07;48.07;;;;;;;19.52;100.00;101795.92;1972027;73;30945;-72
2021/09/04 18:38:39;;;;;;;52.10;48.20;;;;;;;19.35;100.00;101802.25;1972091;73;30968;-71
2021/09/04 18:44:04;;;;;;;52.80;48.77;;;;;;;19.37;100.00;101802.77;1971953;73;31077;-70
2021/09/04 18:49:30;;;;;;;54.07;50.10;;;;;;;19.30;100.00;101815.05;1971960;73;30949;-70
2021/09/04 18:54:55;;;;;;;54.73;50.77;;;;;;;19.13;100.00;101825.35;1972149;73;31432;-70
2021/09/04 19:00:20;;;;;;;52.33;48.53;;;;;;;19.08;100.00;101828.55;1972214;72;31029;-70
2021/09/04 19:05:45;;;;;;;55.00;50.87;;;;;;;18.92;100.00;101840.50;1972009;72;30953;-73
2021/09/04 19:11:10;;;;;;;54.97;50.97;;;;;;;18.82;100.00;101837.37;1971976;73;31051;-70
2021/09/04 19:16:34;;;;;;;52.17;47.97;;;;;;;18.73;100.00;101847.72;1971965;73;30944;-69
2021/09/04 19:21:59;;;;;;;51.23;47.50;;;;;;;18.73;100.00;101863.77;1956117;73;30968;-70
2021/09/04 19:27:24;;;;;;;49.90;46.13;;;;;;;18.63;100.00;101870.44;1971940;73;30938;-72
2021/09/04 19:32:48;;;;;;;50.17;46.40;;;;;;;18.62;100.00;101873.83;1971995;73;31055;-72
2021/09/04 19:38:13;;;;;;;52.93;49.00;;;;;;;18.50;100.00;101878.30;1972162;73;31499;-71
2021/09/04 19:43:38;;;;;;;51.93;48.10;;;;;;;18.36;100.00;101885.32;1971893;73;31000;-74
2021/09/04 19:49:02;;;;;;;52.30;48.30;;;;;;;18.38;100.00;101898.52;1971962;73;31244;-72
2021/09/04 19:54:27;;;;;;;51.17;47.43;;;;;;;18.47;100.00;101903.68;1972163;73;30963;-72
2021/09/04 19:59:51;;;;;;;51.20;47.40;;;;;;;18.31;100.00;101900.92;1972172;73;30998;-73
2021/09/04 20:05:16;;;;;;;49.43;45.77;;;;;;;18.36;100.00;101906.99;1972175;73;30988;-71
2021/09/04 20:10:40;;;;;;;54.43;50.47;;;;;;;18.34;100.00;101914.36;1971956;73;30950;-75
2021/09/04 20:16:06;;;;;;;51.50;47.90;;;;;;;18.38;100.00;101919.62;1972263;73;31584;-70
2021/09/04 20:21:50;;;;;;;53.70;49.70;;;;;;;18.36;100.00;101921.89;2001512;71;30857;-70
2021/09/04 20:27:14;;;;;;;51.23;47.43;;;;;;;18.26;100.00;101929.15;1971936;73;31026;-72
2021/09/04 20:32:40;;;;;;;51.23;47.63;;;;;;;18.21;100.00;101933.45;1972080;73;31006;-70
2021/09/04 20:38:18;;;;;;;49.40;45.70;;;;;;;18.14;100.00;101920.39;1972192;73;31551;-70
2021/09/04 20:43:34;;;;;;;50.53;46.87;;;;;;;18.04;100.00;101923.38;1971912;73;31120;-73
2021/09/04 20:49:06;;;;;;;52.10;48.20;;;;;;;17.96;100.00;101930.55;1972169;73;31671;-75
2021/09/04 20:54:31;;;;;;;52.77;48.73;;;;;;;17.88;100.00;101934.08;1972147;73;31574;-72
2021/09/04 20:59:57;;;;;;;52.10;48.50;;;;;;;17.81;100.00;101937.83;1972200;72;31535;-69
2021/09/04 21:05:22;;;;;;;51.70;48.00;;;;;;;17.79;100.00;101945.75;1972260;73;31459;-70
2021/09/04 21:10:47;;;;;;;50.77;47.13;;;;;;;17.69;100.00;101955.19;1971951;73;31118;-71
2021/09/04 21:16:17;;;;;;;49.03;45.70;;;;;;;17.71;100.00;101957.70;1971971;73;30966;-69
2021/09/04 21:21:42;;;;;;;48.23;44.73;;;;;;;17.60;100.00;101959.83;1966620;71;31068;-70
2021/09/04 21:27:07;;;;;;;49.40;45.90;;;;;;;17.59;100.00;101945.50;1971951;73;30954;-67
2021/09/04 21:32:32;;;;;;;50.37;46.70;;;;;;;17.39;100.00;101944.40;1972191;73;31564;-70
2021/09/04 21:37:57;;;;;;;49.87;46.27;;;;;;;17.35;100.00;101940.53;1972166;73;31038;-71
2021/09/04 21:43:21;;;;;;;50.47;46.93;;;;;;;17.23;100.00;101926.13;1972158;73;30966;-72
2021/09/04 21:48:47;;;;;;;52.20;48.33;;;;;;;17.27;100.00;101926.61;1971989;73;32997;-72
2021/09/04 21:54:12;;;;;;;52.60;48.60;;;;;;;17.19;100.00;101923.09;1971972;73;30984;-72
2021/09/04 21:59:36;;;;;;;51.30;47.73;;;;;;;17.15;100.00;101922.03;1972026;73;32994;-72
2021/09/04 22:05:01;;;;;;;52.10;48.50;;;;;;;17.02;100.00;101910.15;1972027;73;31044;-71
2021/09/04 22:10:25;;;;;;;52.07;48.50;;;;;;;16.91;100.00;101918.99;1971915;73;32981;-69
2021/09/04 22:15:50;;;;;;;50.90;47.30;;;;;;;16.80;100.00;101914.94;1972190;73;31041;-69
2021/09/04 22:21:16;;;;;;;52.27;48.47;;;;;;;16.70;100.00;101926.84;1964884;73;33027;-69
2021/09/04 22:26:43;;;;;;;52.13;48.53;;;;;;;16.64;100.00;101924.70;1972131;73;33510;-71
2021/09/04 22:32:09;;;;;;;51.93;48.40;;;;;;;16.63;100.00;101933.41;1971949;73;30958;-72
2021/09/04 22:43:21;;;;;;;52.07;47.80;;;;;;;16.61;100.00;101941.27;1972099;73;33441;-69
2021/09/04 22:48:47;;;;;;;53.50;49.70;;;;;;;16.43;100.00;101937.84;1971932;73;30955;-71
2021/09/04 22:54:11;;;;;;;50.30;46.53;;;;;;;16.32;100.00;101943.55;1971903;73;32973;-69
2021/09/04 22:59:36;;;;;;;53.57;49.77;;;;;;;16.42;100.00;101939.80;1972126;73;33375;-71
2021/09/04 23:05:01;;;;;;;51.83;47.80;;;;;;;16.25;100.00;101939.43;1972167;73;33561;-71
2021/09/04 23:10:25;;;;;;;53.30;49.20;;;;;;;16.16;100.00;101942.05;1972158;73;32959;-71
2021/09/04 23:15:51;;;;;;;51.23;47.73;;;;;;;16.17;100.00;101947.09;1971963;73;32886;-71
2021/09/04 23:21:20;;;;;;;52.03;48.23;;;;;;;15.83;100.00;101953.55;1968957;71;31025;-71
2021/09/04 23:27:03;;;;;;;53.57;49.83;;;;;;;15.65;100.00;101953.45;2016190;71;30852;-71
2021/09/04 23:32:34;;;;;;;52.73;48.80;;;;;;;15.50;100.00;101947.39;1971911;72;33046;-70
2021/09/04 23:38:19;;;;;;;55.50;51.50;;;;;;;15.42;100.00;101951.63;2016491;71;32885;-68
2021/09/04 23:44:03;;;;;;;55.07;50.97;;;;;;;15.46;100.00;101949.07;2016233;71;32917;-69
2021/09/04 23:49:34;;;;;;;52.90;48.83;;;;;;;15.34;100.00;101956.44;1972126;73;33485;-70
2021/09/04 23:54:59;;;;;;;52.87;48.73;;;;;;;15.35;100.00;101957.28;1971908;73;32911;-71
